sensor_id;sensor_type;location;lat;lon;timestamp;P1;durP1;ratioP1;P2;durP2;ratioP2
11191;SDS011;5652;48.406;10.820;2023-01-31T00:00:24;6.32;;;3.30;;
11191;SDS011;5652;48.406;10.820;2023-01-31T00:02:51;4.93;;;2.90;;
11191;SDS011;5652;48.406;10.820;2023-01-31T00:05:18;6.43;;;3.30;;
11191;SDS011;5652;48.406;10.820;2023-01-31T00:07:45;7.43;;;3.55;;
11191;SDS011;5652;48.406;10.820;2023-01-31T00:10:12;6.60;;;3.15;;
11191;SDS011;5652;48.406;10.820;2023-01-31T00:12:39;4.45;;;3.13;;
11191;SDS011;5652;48.406;10.820;2023-01-31T00:15:08;6.47;;;2.90;;
11191;SDS011;5652;48.406;10.820;2023-01-31T00:17:37;4.03;;;3.22;;
11191;SDS011;5652;48.406;10.820;2023-01-31T00:20:05;4.72;;;3.03;;
11191;SDS011;5652;48.406;10.820;2023-01-31T00:22:32;6.05;;;3.33;;
11191;SDS011;5652;48.406;10.820;2023-01-31T00:24:59;6.55;;;3.28;;
11191;SDS011;5652;48.406;10.820;2023-01-31T00:27:26;6.38;;;3.33;;
11191;SDS011;5652;48.406;10.820;2023-01-31T00:29:54;6.30;;;3.45;;
11191;SDS011;5652;48.406;10.820;2023-01-31T00:32:22;7.50;;;3.17;;
11191;SDS011;5652;48.406;10.820;2023-01-31T00:34:50;6.17;;;3.27;;
11191;SDS011;5652;48.406;10.820;2023-01-31T00:37:18;6.43;;;3.67;;
11191;SDS011;5652;48.406;10.820;2023-01-31T00:39:45;4.70;;;2.88;;
11191;SDS011;5652;48.406;10.820;2023-01-31T00:42:12;7.03;;;3.05;;
11191;SDS011;5652;48.406;10.820;2023-01-31T00:44:39;5.45;;;3.15;;
11191;SDS011;5652;48.406;10.820;2023-01-31T00:47:06;6.75;;;3.55;;
11191;SDS011;5652;48.406;10.820;2023-01-31T00:49:35;5.18;;;3.03;;
11191;SDS011;5652;48.406;10.820;2023-01-31T00:52:03;4.78;;;2.85;;
11191;SDS011;5652;48.406;10.820;2023-01-31T00:54:36;5.17;;;3.20;;
11191;SDS011;5652;48.406;10.820;2023-01-31T00:57:03;4.80;;;3.10;;
11191;SDS011;5652;48.406;10.820;2023-01-31T00:59:30;5.60;;;3.17;;
11191;SDS011;5652;48.406;10.820;2023-01-31T01:01:57;5.78;;;3.28;;
11191;SDS011;5652;48.406;10.820;2023-01-31T01:04:25;5.60;;;3.15;;
11191;SDS011;5652;48.406;10.820;2023-01-31T01:06:53;6.65;;;3.10;;
11191;SDS011;5652;48.406;10.820;2023-01-31T01:09:20;5.82;;;3.33;;
11191;SDS011;5652;48.406;10.820;2023-01-31T01:11:47;6.82;;;3.42;;
11191;SDS011;5652;48.406;10.820;2023-01-31T01:14:15;6.03;;;3.58;;
11191;SDS011;5652;48.406;10.820;2023-01-31T01:16:42;7.15;;;3.00;;
11191;SDS011;5652;48.406;10.820;2023-01-31T01:19:11;8.75;;;3.85;;
11191;SDS011;5652;48.406;10.820;2023-01-31T01:21:39;6.28;;;3.00;;
11191;SDS011;5652;48.406;10.820;2023-01-31T01:24:12;7.60;;;3.80;;
11191;SDS011;5652;48.406;10.820;2023-01-31T01:26:39;5.90;;;3.40;;
11191;SDS011;5652;48.406;10.820;2023-01-31T01:29:06;7.63;;;3.50;;
11191;SDS011;5652;48.406;10.820;2023-01-31T01:31:34;3.65;;;2.90;;
11191;SDS011;5652;48.406;10.820;2023-01-31T01:34:02;8.07;;;3.60;;
11191;SDS011;5652;48.406;10.820;2023-01-31T01:36:30;6.03;;;3.35;;
11191;SDS011;5652;48.406;10.820;2023-01-31T01:38:58;6.82;;;3.60;;
11191;SDS011;5652;48.406;10.820;2023-01-31T01:41:26;5.78;;;3.47;;
11191;SDS011;5652;48.406;10.820;2023-01-31T01:43:55;6.28;;;3.85;;
11191;SDS011;5652;48.406;10.820;2023-01-31T01:46:23;6.72;;;3.78;;
11191;SDS011;5652;48.406;10.820;2023-01-31T01:48:52;6.30;;;4.05;;
11191;SDS011;5652;48.406;10.820;2023-01-31T01:51:20;6.70;;;3.85;;
11191;SDS011;5652;48.406;10.820;2023-01-31T01:53:49;7.18;;;3.70;;
11191;SDS011;5652;48.406;10.820;2023-01-31T01:56:19;6.25;;;3.83;;
11191;SDS011;5652;48.406;10.820;2023-01-31T01:58:50;7.03;;;4.20;;
11191;SDS011;5652;48.406;10.820;2023-01-31T02:01:17;6.50;;;4.00;;
11191;SDS011;5652;48.406;10.820;2023-01-31T02:03:45;6.30;;;3.63;;
11191;SDS011;5652;48.406;10.820;2023-01-31T02:06:14;6.10;;;3.83;;
11191;SDS011;5652;48.406;10.820;2023-01-31T02:08:41;6.07;;;4.07;;
11191;SDS011;5652;48.406;10.820;2023-01-31T02:11:11;7.00;;;3.85;;
11191;SDS011;5652;48.406;10.820;2023-01-31T02:13:41;8.25;;;4.40;;
11191;SDS011;5652;48.406;10.820;2023-01-31T02:16:10;7.57;;;4.07;;
11191;SDS011;5652;48.406;10.820;2023-01-31T02:18:37;8.30;;;4.38;;
11191;SDS011;5652;48.406;10.820;2023-01-31T02:21:14;8.07;;;3.80;;
11191;SDS011;5652;48.406;10.820;2023-01-31T02:24:00;8.23;;;4.53;;
11191;SDS011;5652;48.406;10.820;2023-01-31T02:26:43;6.30;;;3.97;;
11191;SDS011;5652;48.406;10.820;2023-01-31T02:29:27;8.23;;;3.90;;
11191;SDS011;5652;48.406;10.820;2023-01-31T02:32:24;6.47;;;4.18;;
11191;SDS011;5652;48.406;10.820;2023-01-31T02:34:53;6.35;;;4.10;;
11191;SDS011;5652;48.406;10.820;2023-01-31T02:37:25;7.57;;;3.75;;
11191;SDS011;5652;48.406;10.820;2023-01-31T02:39:55;6.57;;;3.72;;
11191;SDS011;5652;48.406;10.820;2023-01-31T02:42:28;6.37;;;3.30;;
11191;SDS011;5652;48.406;10.820;2023-01-31T02:45:03;8.27;;;4.10;;
11191;SDS011;5652;48.406;10.820;2023-01-31T02:47:36;9.73;;;3.88;;
11191;SDS011;5652;48.406;10.820;2023-01-31T02:50:07;9.77;;;3.90;;
11191;SDS011;5652;48.406;10.820;2023-01-31T02:52:38;8.27;;;3.83;;
11191;SDS011;5652;48.406;10.820;2023-01-31T02:55:09;7.38;;;3.67;;
11191;SDS011;5652;48.406;10.820;2023-01-31T02:57:56;8.80;;;3.88;;
11191;SDS011;5652;48.406;10.820;2023-01-31T03:00:24;6.60;;;3.35;;
11191;SDS011;5652;48.406;10.820;2023-01-31T03:02:53;6.00;;;3.83;;
11191;SDS011;5652;48.406;10.820;2023-01-31T03:05:21;6.03;;;3.47;;
11191;SDS011;5652;48.406;10.820;2023-01-31T03:07:49;7.13;;;3.78;;
11191;SDS011;5652;48.406;10.820;2023-01-31T03:10:19;7.63;;;3.58;;
11191;SDS011;5652;48.406;10.820;2023-01-31T03:12:56;6.20;;;3.47;;
11191;SDS011;5652;48.406;10.820;2023-01-31T03:15:28;7.00;;;3.90;;
11191;SDS011;5652;48.406;10.820;2023-01-31T03:18:16;8.60;;;3.72;;
11191;SDS011;5652;48.406;10.820;2023-01-31T03:20:46;7.32;;;3.90;;
11191;SDS011;5652;48.406;10.820;2023-01-31T03:23:15;9.63;;;3.97;;
11191;SDS011;5652;48.406;10.820;2023-01-31T03:25:44;6.80;;;3.97;;
11191;SDS011;5652;48.406;10.820;2023-01-31T03:28:12;6.10;;;3.97;;
11191;SDS011;5652;48.406;10.820;2023-01-31T03:30:40;6.90;;;4.00;;
11191;SDS011;5652;48.406;10.820;2023-01-31T03:33:09;7.30;;;3.80;;
11191;SDS011;5652;48.406;10.820;2023-01-31T03:35:40;9.65;;;4.20;;
11191;SDS011;5652;48.406;10.820;2023-01-31T03:38:10;10.85;;;4.40;;
11191;SDS011;5652;48.406;10.820;2023-01-31T03:40:40;8.07;;;4.10;;
11191;SDS011;5652;48.406;10.820;2023-01-31T03:43:10;8.80;;;3.90;;
11191;SDS011;5652;48.406;10.820;2023-01-31T03:45:39;8.27;;;4.15;;
11191;SDS011;5652;48.406;10.820;2023-01-31T03:48:08;9.18;;;4.18;;
11191;SDS011;5652;48.406;10.820;2023-01-31T03:50:39;6.90;;;4.60;;
11191;SDS011;5652;48.406;10.820;2023-01-31T03:53:09;7.05;;;3.70;;
11191;SDS011;5652;48.406;10.820;2023-01-31T03:55:38;6.72;;;4.40;;
11191;SDS011;5652;48.406;10.820;2023-01-31T03:58:07;7.88;;;4.00;;
11191;SDS011;5652;48.406;10.820;2023-01-31T04:00:36;7.13;;;3.78;;
11191;SDS011;5652;48.406;10.820;2023-01-31T04:03:06;8.18;;;3.95;;
11191;SDS011;5652;48.406;10.820;2023-01-31T04:05:36;7.20;;;3.85;;
11191;SDS011;5652;48.406;10.820;2023-01-31T04:08:04;7.68;;;4.15;;
11191;SDS011;5652;48.406;10.820;2023-01-31T04:10:33;8.00;;;4.00;;
11191;SDS011;5652;48.406;10.820;2023-01-31T04:13:00;8.90;;;4.20;;
11191;SDS011;5652;48.406;10.820;2023-01-31T04:15:28;9.77;;;4.18;;
11191;SDS011;5652;48.406;10.820;2023-01-31T04:17:55;7.65;;;4.28;;
11191;SDS011;5652;48.406;10.820;2023-01-31T04:20:22;5.90;;;4.17;;
11191;SDS011;5652;48.406;10.820;2023-01-31T04:22:49;9.07;;;4.55;;
11191;SDS011;5652;48.406;10.820;2023-01-31T04:25:16;6.80;;;4.40;;
11191;SDS011;5652;48.406;10.820;2023-01-31T04:27:44;8.35;;;4.57;;
11191;SDS011;5652;48.406;10.820;2023-01-31T04:30:12;8.60;;;4.60;;
11191;SDS011;5652;48.406;10.820;2023-01-31T04:32:39;7.80;;;4.50;;
11191;SDS011;5652;48.406;10.820;2023-01-31T04:35:06;7.10;;;4.60;;
11191;SDS011;5652;48.406;10.820;2023-01-31T04:37:35;9.77;;;4.90;;
11191;SDS011;5652;48.406;10.820;2023-01-31T04:40:03;10.75;;;5.07;;
11191;SDS011;5652;48.406;10.820;2023-01-31T04:42:30;9.98;;;4.72;;
11191;SDS011;5652;48.406;10.820;2023-01-31T04:44:59;8.10;;;4.95;;
11191;SDS011;5652;48.406;10.820;2023-01-31T04:47:26;10.18;;;4.78;;
11191;SDS011;5652;48.406;10.820;2023-01-31T04:49:53;7.90;;;4.78;;
11191;SDS011;5652;48.406;10.820;2023-01-31T04:52:20;8.40;;;4.65;;
11191;SDS011;5652;48.406;10.820;2023-01-31T04:54:48;6.87;;;4.40;;
11191;SDS011;5652;48.406;10.820;2023-01-31T04:57:15;9.15;;;4.40;;
11191;SDS011;5652;48.406;10.820;2023-01-31T04:59:42;8.47;;;4.63;;
11191;SDS011;5652;48.406;10.820;2023-01-31T05:02:11;10.38;;;5.03;;
11191;SDS011;5652;48.406;10.820;2023-01-31T05:04:39;7.93;;;4.85;;
11191;SDS011;5652;48.406;10.820;2023-01-31T05:07:06;9.85;;;4.63;;
11191;SDS011;5652;48.406;10.820;2023-01-31T05:09:33;9.05;;;4.60;;
11191;SDS011;5652;48.406;10.820;2023-01-31T05:12:00;10.13;;;4.80;;
11191;SDS011;5652;48.406;10.820;2023-01-31T05:14:28;8.40;;;4.90;;
11191;SDS011;5652;48.406;10.820;2023-01-31T05:16:56;8.33;;;5.07;;
11191;SDS011;5652;48.406;10.820;2023-01-31T05:19:25;8.23;;;5.28;;
11191;SDS011;5652;48.406;10.820;2023-01-31T05:21:52;10.15;;;5.43;;
11191;SDS011;5652;48.406;10.820;2023-01-31T05:24:23;9.23;;;5.40;;
11191;SDS011;5652;48.406;10.820;2023-01-31T05:26:51;9.25;;;5.50;;
11191;SDS011;5652;48.406;10.820;2023-01-31T05:29:22;8.70;;;5.47;;
11191;SDS011;5652;48.406;10.820;2023-01-31T05:31:49;9.18;;;5.45;;
11191;SDS011;5652;48.406;10.820;2023-01-31T05:34:16;10.15;;;5.63;;
11191;SDS011;5652;48.406;10.820;2023-01-31T05:36:46;8.52;;;5.40;;
11191;SDS011;5652;48.406;10.820;2023-01-31T05:39:13;9.88;;;5.50;;
11191;SDS011;5652;48.406;10.820;2023-01-31T05:41:40;9.23;;;5.60;;
11191;SDS011;5652;48.406;10.820;2023-01-31T05:44:07;10.07;;;5.55;;
11191;SDS011;5652;48.406;10.820;2023-01-31T05:46:34;8.73;;;6.00;;
11191;SDS011;5652;48.406;10.820;2023-01-31T05:49:02;8.27;;;5.50;;
11191;SDS011;5652;48.406;10.820;2023-01-31T05:51:29;8.30;;;5.83;;
11191;SDS011;5652;48.406;10.820;2023-01-31T05:53:58;8.80;;;5.88;;
11191;SDS011;5652;48.406;10.820;2023-01-31T05:56:25;9.73;;;5.80;;
11191;SDS011;5652;48.406;10.820;2023-01-31T05:58:52;10.57;;;6.32;;
11191;SDS011;5652;48.406;10.820;2023-01-31T06:01:20;9.98;;;5.90;;
11191;SDS011;5652;48.406;10.820;2023-01-31T06:03:47;9.43;;;5.72;;
11191;SDS011;5652;48.406;10.820;2023-01-31T06:06:15;11.25;;;6.35;;
11191;SDS011;5652;48.406;10.820;2023-01-31T06:08:42;10.30;;;6.13;;
11191;SDS011;5652;48.406;10.820;2023-01-31T06:11:11;9.75;;;6.13;;
11191;SDS011;5652;48.406;10.820;2023-01-31T06:13:39;9.07;;;5.40;;
11191;SDS011;5652;48.406;10.820;2023-01-31T06:16:07;9.68;;;5.70;;
11191;SDS011;5652;48.406;10.820;2023-01-31T06:18:34;8.55;;;5.68;;
11191;SDS011;5652;48.406;10.820;2023-01-31T06:21:02;9.88;;;5.75;;
11191;SDS011;5652;48.406;10.820;2023-01-31T06:23:30;9.25;;;4.88;;
11191;SDS011;5652;48.406;10.820;2023-01-31T06:25:58;9.27;;;5.83;;
11191;SDS011;5652;48.406;10.820;2023-01-31T06:28:27;8.77;;;5.30;;
11191;SDS011;5652;48.406;10.820;2023-01-31T06:30:54;9.07;;;5.28;;
11191;SDS011;5652;48.406;10.820;2023-01-31T06:33:21;9.10;;;5.05;;
11191;SDS011;5652;48.406;10.820;2023-01-31T06:35:48;8.07;;;5.38;;
11191;SDS011;5652;48.406;10.820;2023-01-31T06:38:15;8.98;;;5.43;;
11191;SDS011;5652;48.406;10.820;2023-01-31T06:40:42;9.50;;;5.50;;
11191;SDS011;5652;48.406;10.820;2023-01-31T06:43:10;8.18;;;5.10;;
11191;SDS011;5652;48.406;10.820;2023-01-31T06:45:38;8.05;;;5.00;;
11191;SDS011;5652;48.406;10.820;2023-01-31T06:48:08;7.85;;;5.43;;
11191;SDS011;5652;48.406;10.820;2023-01-31T06:50:35;9.70;;;4.80;;
11191;SDS011;5652;48.406;10.820;2023-01-31T06:53:02;8.15;;;4.85;;
11191;SDS011;5652;48.406;10.820;2023-01-31T06:55:29;8.93;;;5.10;;
11191;SDS011;5652;48.406;10.820;2023-01-31T06:57:56;10.47;;;5.50;;
11191;SDS011;5652;48.406;10.820;2023-01-31T07:00:24;11.25;;;5.68;;
11191;SDS011;5652;48.406;10.820;2023-01-31T07:02:52;10.27;;;5.40;;
11191;SDS011;5652;48.406;10.820;2023-01-31T07:05:21;9.90;;;5.40;;
11191;SDS011;5652;48.406;10.820;2023-01-31T07:07:48;9.32;;;5.07;;
11191;SDS011;5652;48.406;10.820;2023-01-31T07:10:16;8.88;;;5.20;;
11191;SDS011;5652;48.406;10.820;2023-01-31T07:12:43;10.63;;;5.68;;
11191;SDS011;5652;48.406;10.820;2023-01-31T07:15:10;8.27;;;4.97;;
11191;SDS011;5652;48.406;10.820;2023-01-31T07:17:37;11.63;;;5.63;;
11191;SDS011;5652;48.406;10.820;2023-01-31T07:20:07;8.20;;;5.13;;
11191;SDS011;5652;48.406;10.820;2023-01-31T07:22:34;9.43;;;4.90;;
11191;SDS011;5652;48.406;10.820;2023-01-31T07:25:01;9.45;;;5.07;;
11191;SDS011;5652;48.406;10.820;2023-01-31T07:27:28;10.60;;;5.53;;
11191;SDS011;5652;48.406;10.820;2023-01-31T07:29:55;10.80;;;5.22;;
11191;SDS011;5652;48.406;10.820;2023-01-31T07:32:22;9.97;;;5.10;;
11191;SDS011;5652;48.406;10.820;2023-01-31T07:34:54;9.07;;;5.10;;
11191;SDS011;5652;48.406;10.820;2023-01-31T07:37:22;7.85;;;4.95;;
11191;SDS011;5652;48.406;10.820;2023-01-31T07:39:49;7.57;;;4.72;;
11191;SDS011;5652;48.406;10.820;2023-01-31T07:42:16;8.13;;;4.88;;
11191;SDS011;5652;48.406;10.820;2023-01-31T07:44:44;9.50;;;5.22;;
11191;SDS011;5652;48.406;10.820;2023-01-31T07:47:11;7.47;;;4.85;;
11191;SDS011;5652;48.406;10.820;2023-01-31T07:49:38;8.37;;;4.90;;
11191;SDS011;5652;48.406;10.820;2023-01-31T07:52:06;9.95;;;4.88;;
11191;SDS011;5652;48.406;10.820;2023-01-31T07:54:34;10.32;;;5.00;;
11191;SDS011;5652;48.406;10.820;2023-01-31T07:57:02;6.32;;;4.07;;
11191;SDS011;5652;48.406;10.820;2023-01-31T07:59:29;7.30;;;4.50;;
11191;SDS011;5652;48.406;10.820;2023-01-31T08:01:56;8.70;;;4.70;;
11191;SDS011;5652;48.406;10.820;2023-01-31T08:04:41;12.55;;;5.50;;
11191;SDS011;5652;48.406;10.820;2023-01-31T08:07:09;9.40;;;4.70;;
11191;SDS011;5652;48.406;10.820;2023-01-31T08:09:37;8.13;;;4.68;;
11191;SDS011;5652;48.406;10.820;2023-01-31T08:12:04;9.00;;;4.72;;
11191;SDS011;5652;48.406;10.820;2023-01-31T08:14:32;9.00;;;4.78;;
11191;SDS011;5652;48.406;10.820;2023-01-31T08:16:59;7.00;;;4.53;;
11191;SDS011;5652;48.406;10.820;2023-01-31T08:19:26;7.45;;;5.10;;
11191;SDS011;5652;48.406;10.820;2023-01-31T08:21:53;9.95;;;5.15;;
11191;SDS011;5652;48.406;10.820;2023-01-31T08:24:20;8.40;;;4.45;;
11191;SDS011;5652;48.406;10.820;2023-01-31T08:26:49;8.23;;;4.70;;
11191;SDS011;5652;48.406;10.820;2023-01-31T08:29:16;7.72;;;4.35;;
11191;SDS011;5652;48.406;10.820;2023-01-31T08:31:43;8.98;;;4.57;;
11191;SDS011;5652;48.406;10.820;2023-01-31T08:34:11;8.77;;;4.40;;
11191;SDS011;5652;48.406;10.820;2023-01-31T08:36:39;8.68;;;4.47;;
11191;SDS011;5652;48.406;10.820;2023-01-31T08:39:06;9.18;;;4.18;;
11191;SDS011;5652;48.406;10.820;2023-01-31T08:41:34;7.63;;;3.80;;
11191;SDS011;5652;48.406;10.820;2023-01-31T08:44:03;8.10;;;3.33;;
11191;SDS011;5652;48.406;10.820;2023-01-31T08:46:31;9.57;;;4.00;;
11191;SDS011;5652;48.406;10.820;2023-01-31T08:48:59;9.07;;;4.03;;
11191;SDS011;5652;48.406;10.820;2023-01-31T08:51:26;9.47;;;4.13;;
11191;SDS011;5652;48.406;10.820;2023-01-31T08:53:53;7.88;;;3.65;;
11191;SDS011;5652;48.406;10.820;2023-01-31T08:56:20;4.82;;;2.80;;
11191;SDS011;5652;48.406;10.820;2023-01-31T08:58:50;7.43;;;3.53;;
11191;SDS011;5652;48.406;10.820;2023-01-31T09:01:19;7.77;;;3.70;;
11191;SDS011;5652;48.406;10.820;2023-01-31T09:03:46;8.38;;;3.42;;
11191;SDS011;5652;48.406;10.820;2023-01-31T09:06:16;5.82;;;3.20;;
11191;SDS011;5652;48.406;10.820;2023-01-31T09:08:43;7.50;;;3.43;;
11191;SDS011;5652;48.406;10.820;2023-01-31T09:11:10;4.00;;;2.50;;
11191;SDS011;5652;48.406;10.820;2023-01-31T09:13:41;7.38;;;3.65;;
11191;SDS011;5652;48.406;10.820;2023-01-31T09:16:08;9.25;;;3.72;;
11191;SDS011;5652;48.406;10.820;2023-01-31T09:18:38;7.50;;;3.53;;
11191;SDS011;5652;48.406;10.820;2023-01-31T09:21:05;7.43;;;3.50;;
11191;SDS011;5652;48.406;10.820;2023-01-31T09:23:33;6.17;;;3.13;;
11191;SDS011;5652;48.406;10.820;2023-01-31T09:26:00;7.32;;;3.03;;
11191;SDS011;5652;48.406;10.820;2023-01-31T09:28:28;6.85;;;3.03;;
11191;SDS011;5652;48.406;10.820;2023-01-31T09:31:00;6.70;;;3.22;;
11191;SDS011;5652;48.406;10.820;2023-01-31T09:33:29;7.47;;;3.40;;
11191;SDS011;5652;48.406;10.820;2023-01-31T09:35:58;7.28;;;3.50;;
11191;SDS011;5652;48.406;10.820;2023-01-31T09:38:26;6.60;;;3.22;;
11191;SDS011;5652;48.406;10.820;2023-01-31T09:40:53;6.63;;;3.08;;
11191;SDS011;5652;48.406;10.820;2023-01-31T09:43:23;9.00;;;3.50;;
11191;SDS011;5652;48.406;10.820;2023-01-31T09:45:51;7.28;;;3.10;;
11191;SDS011;5652;48.406;10.820;2023-01-31T09:48:21;7.30;;;2.88;;
11191;SDS011;5652;48.406;10.820;2023-01-31T09:50:50;5.28;;;2.60;;
11191;SDS011;5652;48.406;10.820;2023-01-31T09:53:21;7.07;;;2.65;;
11191;SDS011;5652;48.406;10.820;2023-01-31T09:55:51;8.20;;;2.92;;
11191;SDS011;5652;48.406;10.820;2023-01-31T09:58:31;7.60;;;3.00;;
11191;SDS011;5652;48.406;10.820;2023-01-31T10:01:02;9.35;;;3.28;;
11191;SDS011;5652;48.406;10.820;2023-01-31T10:03:37;5.70;;;2.88;;
11191;SDS011;5652;48.406;10.820;2023-01-31T10:06:07;7.97;;;2.83;;
11191;SDS011;5652;48.406;10.820;2023-01-31T10:08:41;9.27;;;3.33;;
11191;SDS011;5652;48.406;10.820;2023-01-31T10:11:10;5.80;;;2.78;;
11191;SDS011;5652;48.406;10.820;2023-01-31T10:13:42;6.35;;;2.60;;
11191;SDS011;5652;48.406;10.820;2023-01-31T10:16:13;9.63;;;2.70;;
11191;SDS011;5652;48.406;10.820;2023-01-31T10:18:42;6.43;;;2.75;;
11191;SDS011;5652;48.406;10.820;2023-01-31T10:21:12;5.63;;;2.50;;
11191;SDS011;5652;48.406;10.820;2023-01-31T10:23:43;6.25;;;2.65;;
11191;SDS011;5652;48.406;10.820;2023-01-31T10:26:12;7.45;;;2.90;;
11191;SDS011;5652;48.406;10.820;2023-01-31T10:28:41;6.03;;;2.63;;
11191;SDS011;5652;48.406;10.820;2023-01-31T10:31:15;5.63;;;2.50;;
11191;SDS011;5652;48.406;10.820;2023-01-31T10:33:49;5.30;;;1.98;;
11191;SDS011;5652;48.406;10.820;2023-01-31T10:36:21;4.65;;;2.00;;
11191;SDS011;5652;48.406;10.820;2023-01-31T10:38:56;6.85;;;2.60;;
11191;SDS011;5652;48.406;10.820;2023-01-31T10:41:28;4.88;;;2.30;;
11191;SDS011;5652;48.406;10.820;2023-01-31T10:43:58;4.50;;;2.10;;
11191;SDS011;5652;48.406;10.820;2023-01-31T10:46:27;6.63;;;1.92;;
11191;SDS011;5652;48.406;10.820;2023-01-31T10:48:54;3.15;;;1.80;;
11191;SDS011;5652;48.406;10.820;2023-01-31T10:51:27;3.97;;;1.80;;
11191;SDS011;5652;48.406;10.820;2023-01-31T10:54:10;5.63;;;2.43;;
11191;SDS011;5652;48.406;10.820;2023-01-31T10:56:41;5.07;;;2.03;;
11191;SDS011;5652;48.406;10.820;2023-01-31T10:59:11;3.92;;;2.33;;
11191;SDS011;5652;48.406;10.820;2023-01-31T11:01:38;4.73;;;2.43;;
11191;SDS011;5652;48.406;10.820;2023-01-31T11:04:18;5.53;;;2.25;;
11191;SDS011;5652;48.406;10.820;2023-01-31T11:06:47;5.97;;;2.45;;
11191;SDS011;5652;48.406;10.820;2023-01-31T11:09:16;6.35;;;2.60;;
11191;SDS011;5652;48.406;10.820;2023-01-31T11:11:51;5.47;;;2.55;;
11191;SDS011;5652;48.406;10.820;2023-01-31T11:14:26;6.80;;;2.47;;
11191;SDS011;5652;48.406;10.820;2023-01-31T11:16:56;4.05;;;2.38;;
11191;SDS011;5652;48.406;10.820;2023-01-31T11:19:28;6.72;;;2.47;;
11191;SDS011;5652;48.406;10.820;2023-01-31T11:21:56;6.40;;;2.50;;
11191;SDS011;5652;48.406;10.820;2023-01-31T11:24:25;6.50;;;2.38;;
11191;SDS011;5652;48.406;10.820;2023-01-31T11:26:54;7.72;;;2.25;;
11191;SDS011;5652;48.406;10.820;2023-01-31T11:29:23;5.95;;;2.28;;
11191;SDS011;5652;48.406;10.820;2023-01-31T11:31:51;4.03;;;2.33;;
11191;SDS011;5652;48.406;10.820;2023-01-31T11:34:20;7.50;;;2.20;;
11191;SDS011;5652;48.406;10.820;2023-01-31T11:36:48;9.00;;;2.92;;
11191;SDS011;5652;48.406;10.820;2023-01-31T11:39:27;4.40;;;2.30;;
11191;SDS011;5652;48.406;10.820;2023-01-31T11:41:55;4.60;;;2.15;;
11191;SDS011;5652;48.406;10.820;2023-01-31T11:44:23;4.78;;;2.60;;
11191;SDS011;5652;48.406;10.820;2023-01-31T11:46:51;3.47;;;2.00;;
11191;SDS011;5652;48.406;10.820;2023-01-31T11:49:29;4.60;;;2.35;;
11191;SDS011;5652;48.406;10.820;2023-01-31T11:51:57;6.22;;;2.60;;
11191;SDS011;5652;48.406;10.820;2023-01-31T11:54:26;5.83;;;2.10;;
11191;SDS011;5652;48.406;10.820;2023-01-31T11:56:54;5.38;;;2.08;;
11191;SDS011;5652;48.406;10.820;2023-01-31T11:59:22;6.05;;;2.15;;
11191;SDS011;5652;48.406;10.820;2023-01-31T12:01:51;5.93;;;2.70;;
11191;SDS011;5652;48.406;10.820;2023-01-31T12:04:20;3.97;;;2.40;;
11191;SDS011;5652;48.406;10.820;2023-01-31T12:06:56;5.43;;;2.63;;
11191;SDS011;5652;48.406;10.820;2023-01-31T12:09:28;5.25;;;2.20;;
11191;SDS011;5652;48.406;10.820;2023-01-31T12:11:56;4.40;;;2.15;;
11191;SDS011;5652;48.406;10.820;2023-01-31T12:14:24;4.50;;;1.92;;
11191;SDS011;5652;48.406;10.820;2023-01-31T12:17:01;5.07;;;2.20;;
11191;SDS011;5652;48.406;10.820;2023-01-31T12:19:31;5.13;;;2.00;;
11191;SDS011;5652;48.406;10.820;2023-01-31T12:22:01;5.18;;;1.50;;
11191;SDS011;5652;48.406;10.820;2023-01-31T12:24:35;3.20;;;1.45;;
11191;SDS011;5652;48.406;10.820;2023-01-31T12:27:10;4.63;;;1.80;;
11191;SDS011;5652;48.406;10.820;2023-01-31T12:29:49;3.35;;;1.80;;
11191;SDS011;5652;48.406;10.820;2023-01-31T12:32:24;3.40;;;1.70;;
11191;SDS011;5652;48.406;10.820;2023-01-31T12:35:07;6.20;;;1.95;;
11191;SDS011;5652;48.406;10.820;2023-01-31T12:37:38;3.80;;;1.55;;
11191;SDS011;5652;48.406;10.820;2023-01-31T12:40:18;3.45;;;1.60;;
11191;SDS011;5652;48.406;10.820;2023-01-31T12:42:52;4.80;;;1.70;;
11191;SDS011;5652;48.406;10.820;2023-01-31T12:45:33;2.80;;;2.05;;
11191;SDS011;5652;48.406;10.820;2023-01-31T12:48:16;4.50;;;2.10;;
11191;SDS011;5652;48.406;10.820;2023-01-31T12:50:48;2.57;;;1.80;;
11191;SDS011;5652;48.406;10.820;2023-01-31T12:53:23;4.80;;;2.28;;
11191;SDS011;5652;48.406;10.820;2023-01-31T12:55:57;4.88;;;2.25;;
11191;SDS011;5652;48.406;10.820;2023-01-31T12:58:34;5.65;;;2.28;;
11191;SDS011;5652;48.406;10.820;2023-01-31T13:01:05;4.85;;;1.90;;
11191;SDS011;5652;48.406;10.820;2023-01-31T13:03:54;3.88;;;1.80;;
11191;SDS011;5652;48.406;10.820;2023-01-31T13:06:25;5.70;;;2.20;;
11191;SDS011;5652;48.406;10.820;2023-01-31T13:08:56;4.57;;;2.30;;
11191;SDS011;5652;48.406;10.820;2023-01-31T13:11:37;3.37;;;1.90;;
11191;SDS011;5652;48.406;10.820;2023-01-31T13:14:09;3.10;;;1.85;;
11191;SDS011;5652;48.406;10.820;2023-01-31T13:16:37;2.75;;;2.00;;
11191;SDS011;5652;48.406;10.820;2023-01-31T13:19:08;3.92;;;1.92;;
11191;SDS011;5652;48.406;10.820;2023-01-31T13:21:38;5.38;;;2.50;;
11191;SDS011;5652;48.406;10.820;2023-01-31T13:24:08;4.37;;;2.93;;
11191;SDS011;5652;48.406;10.820;2023-01-31T13:26:39;6.73;;;2.87;;
11191;SDS011;5652;48.406;10.820;2023-01-31T13:29:10;5.57;;;2.60;;
11191;SDS011;5652;48.406;10.820;2023-01-31T13:31:41;4.40;;;2.25;;
11191;SDS011;5652;48.406;10.820;2023-01-31T13:34:11;6.57;;;2.65;;
11191;SDS011;5652;48.406;10.820;2023-01-31T13:36:42;4.38;;;2.70;;
11191;SDS011;5652;48.406;10.820;2023-01-31T13:39:12;4.63;;;3.05;;
11191;SDS011;5652;48.406;10.820;2023-01-31T13:41:41;7.57;;;3.30;;
11191;SDS011;5652;48.406;10.820;2023-01-31T13:44:10;4.35;;;2.80;;
11191;SDS011;5652;48.406;10.820;2023-01-31T13:46:39;7.13;;;2.80;;
11191;SDS011;5652;48.406;10.820;2023-01-31T13:49:09;3.22;;;2.47;;
11191;SDS011;5652;48.406;10.820;2023-01-31T13:51:42;5.60;;;2.50;;
11191;SDS011;5652;48.406;10.820;2023-01-31T13:54:12;4.82;;;2.65;;
11191;SDS011;5652;48.406;10.820;2023-01-31T13:56:44;4.18;;;2.33;;
11191;SDS011;5652;48.406;10.820;2023-01-31T13:59:16;5.03;;;2.85;;
11191;SDS011;5652;48.406;10.820;2023-01-31T14:01:46;4.65;;;2.47;;
11191;SDS011;5652;48.406;10.820;2023-01-31T14:04:27;6.15;;;3.25;;
11191;SDS011;5652;48.406;10.820;2023-01-31T14:06:56;4.80;;;3.03;;
11191;SDS011;5652;48.406;10.820;2023-01-31T14:09:24;7.65;;;3.45;;
11191;SDS011;5652;48.406;10.820;2023-01-31T14:11:53;7.15;;;3.03;;
11191;SDS011;5652;48.406;10.820;2023-01-31T14:17:08;4.53;;;3.10;;
11191;SDS011;5652;48.406;10.820;2023-01-31T14:22:19;4.47;;;2.92;;
11191;SDS011;5652;48.406;10.820;2023-01-31T14:24:56;5.47;;;3.42;;
11191;SDS011;5652;48.406;10.820;2023-01-31T14:27:27;4.47;;;3.05;;
11191;SDS011;5652;48.406;10.820;2023-01-31T14:29:56;4.25;;;2.42;;
11191;SDS011;5652;48.406;10.820;2023-01-31T14:32:29;6.30;;;3.33;;
11191;SDS011;5652;48.406;10.820;2023-01-31T14:34:56;5.75;;;3.15;;
11191;SDS011;5652;48.406;10.820;2023-01-31T14:37:29;4.60;;;2.83;;
11191;SDS011;5652;48.406;10.820;2023-01-31T14:40:07;5.80;;;3.10;;
11191;SDS011;5652;48.406;10.820;2023-01-31T14:42:45;4.68;;;2.90;;
11191;SDS011;5652;48.406;10.820;2023-01-31T14:45:18;6.22;;;3.00;;
11191;SDS011;5652;48.406;10.820;2023-01-31T14:47:53;4.85;;;3.05;;
11191;SDS011;5652;48.406;10.820;2023-01-31T14:50:32;4.88;;;2.60;;
11191;SDS011;5652;48.406;10.820;2023-01-31T14:53:09;5.18;;;2.70;;
11191;SDS011;5652;48.406;10.820;2023-01-31T14:55:43;5.38;;;3.20;;
11191;SDS011;5652;48.406;10.820;2023-01-31T14:58:16;5.57;;;2.95;;
11191;SDS011;5652;48.406;10.820;2023-01-31T15:00:47;6.43;;;3.58;;
11191;SDS011;5652;48.406;10.820;2023-01-31T15:03:16;5.93;;;3.45;;
11191;SDS011;5652;48.406;10.820;2023-01-31T15:05:45;8.23;;;3.72;;
11191;SDS011;5652;48.406;10.820;2023-01-31T15:11:12;5.95;;;3.30;;